sensor_id;sensor_type;location;lat;lon;timestamp;P1;durP1;ratioP1;P2;durP2;ratioP2
1785;SDS011;890;48.158;11.540;2023-03-31T00:01:47;7.83;;;5.63;;
1785;SDS011;890;48.158;11.540;2023-03-31T00:04:13;8.37;;;6.33;;
1785;SDS011;890;48.158;11.540;2023-03-31T00:06:39;8.33;;;5.87;;
1785;SDS011;890;48.158;11.540;2023-03-31T00:09:07;10.90;;;5.63;;
1785;SDS011;890;48.158;11.540;2023-03-31T00:11:35;6.90;;;5.03;;
1785;SDS011;890;48.158;11.540;2023-03-31T00:14:01;7.30;;;6.60;;
1785;SDS011;890;48.158;11.540;2023-03-31T00:16:27;6.80;;;5.50;;
1785;SDS011;890;48.158;11.540;2023-03-31T00:18:53;6.67;;;5.70;;
1785;SDS011;890;48.158;11.540;2023-03-31T00:21:20;7.17;;;6.43;;
1785;SDS011;890;48.158;11.540;2023-03-31T00:23:54;6.17;;;5.57;;
1785;SDS011;890;48.158;11.540;2023-03-31T00:26:21;8.77;;;6.37;;
1785;SDS011;890;48.158;11.540;2023-03-31T00:28:47;7.03;;;6.20;;
1785;SDS011;890;48.158;11.540;2023-03-31T00:31:14;8.53;;;5.83;;
1785;SDS011;890;48.158;11.540;2023-03-31T00:33:40;8.77;;;5.90;;
1785;SDS011;890;48.158;11.540;2023-03-31T00:36:06;7.73;;;6.50;;
1785;SDS011;890;48.158;11.540;2023-03-31T00:38:32;8.37;;;6.23;;
1785;SDS011;890;48.158;11.540;2023-03-31T00:40:58;8.30;;;6.33;;
1785;SDS011;890;48.158;11.540;2023-03-31T00:43:29;8.33;;;6.00;;
1785;SDS011;890;48.158;11.540;2023-03-31T00:46:39;8.70;;;6.10;;
1785;SDS011;890;48.158;11.540;2023-03-31T00:48:50;8.97;;;6.10;;
1785;SDS011;890;48.158;11.540;2023-03-31T00:51:21;8.67;;;5.90;;
1785;SDS011;890;48.158;11.540;2023-03-31T00:53:55;8.40;;;5.73;;
1785;SDS011;890;48.158;11.540;2023-03-31T00:56:30;8.30;;;5.93;;
1785;SDS011;890;48.158;11.540;2023-03-31T00:58:59;6.90;;;6.20;;
1785;SDS011;890;48.158;11.540;2023-03-31T01:01:27;8.10;;;5.40;;
1785;SDS011;890;48.158;11.540;2023-03-31T01:03:54;6.47;;;5.43;;
1785;SDS011;890;48.158;11.540;2023-03-31T01:06:21;8.10;;;6.07;;
1785;SDS011;890;48.158;11.540;2023-03-31T01:08:49;7.73;;;5.40;;
1785;SDS011;890;48.158;11.540;2023-03-31T01:11:17;6.57;;;5.70;;
1785;SDS011;890;48.158;11.540;2023-03-31T01:13:45;8.50;;;6.60;;
1785;SDS011;890;48.158;11.540;2023-03-31T01:16:15;8.20;;;5.20;;
1785;SDS011;890;48.158;11.540;2023-03-31T01:18:41;6.03;;;5.27;;
1785;SDS011;890;48.158;11.540;2023-03-31T01:24:11;7.70;;;5.23;;
1785;SDS011;890;48.158;11.540;2023-03-31T01:35:34;7.10;;;5.63;;
1785;SDS011;890;48.158;11.540;2023-03-31T01:44:32;11.13;;;6.50;;
1785;SDS011;890;48.158;11.540;2023-03-31T01:47:08;7.03;;;5.60;;
1785;SDS011;890;48.158;11.540;2023-03-31T01:49:45;6.90;;;6.10;;
1785;SDS011;890;48.158;11.540;2023-03-31T01:52:35;6.93;;;5.60;;
1785;SDS011;890;48.158;11.540;2023-03-31T01:55:35;6.43;;;5.73;;
1785;SDS011;890;48.158;11.540;2023-03-31T02:00:37;7.33;;;6.23;;
1785;SDS011;890;48.158;11.540;2023-03-31T02:03:13;9.20;;;5.37;;
1785;SDS011;890;48.158;11.540;2023-03-31T02:05:45;6.43;;;5.73;;
1785;SDS011;890;48.158;11.540;2023-03-31T02:08:25;6.83;;;5.73;;
1785;SDS011;890;48.158;11.540;2023-03-31T02:10:55;7.40;;;5.60;;
1785;SDS011;890;48.158;11.540;2023-03-31T02:13:22;8.40;;;5.73;;
1785;SDS011;890;48.158;11.540;2023-03-31T02:15:53;9.03;;;6.30;;
1785;SDS011;890;48.158;11.540;2023-03-31T02:18:24;7.37;;;5.80;;
1785;SDS011;890;48.158;11.540;2023-03-31T02:20:54;9.60;;;6.00;;
1785;SDS011;890;48.158;11.540;2023-03-31T02:23:23;7.90;;;6.10;;
1785;SDS011;890;48.158;11.540;2023-03-31T02:26:00;8.53;;;6.10;;
1785;SDS011;890;48.158;11.540;2023-03-31T02:28:29;10.97;;;6.70;;
1785;SDS011;890;48.158;11.540;2023-03-31T02:33:49;7.83;;;5.30;;
1785;SDS011;890;48.158;11.540;2023-03-31T02:36:15;8.33;;;5.70;;
1785;SDS011;890;48.158;11.540;2023-03-31T02:38:42;9.03;;;6.00;;
1785;SDS011;890;48.158;11.540;2023-03-31T02:41:14;8.63;;;5.60;;
1785;SDS011;890;48.158;11.540;2023-03-31T02:43:40;7.33;;;5.43;;
1785;SDS011;890;48.158;11.540;2023-03-31T02:46:05;8.80;;;6.27;;
1785;SDS011;890;48.158;11.540;2023-03-31T02:48:38;9.70;;;6.50;;
1785;SDS011;890;48.158;11.540;2023-03-31T02:59:43;8.90;;;7.03;;
1785;SDS011;890;48.158;11.540;2023-03-31T03:04:34;7.97;;;5.43;;
1785;SDS011;890;48.158;11.540;2023-03-31T03:07:06;7.53;;;5.97;;
1785;SDS011;890;48.158;11.540;2023-03-31T03:12:24;7.03;;;6.30;;
1785;SDS011;890;48.158;11.540;2023-03-31T03:15:19;9.00;;;6.40;;
1785;SDS011;890;48.158;11.540;2023-03-31T03:17:49;10.83;;;6.77;;
1785;SDS011;890;48.158;11.540;2023-03-31T03:20:16;8.10;;;6.57;;
1785;SDS011;890;48.158;11.540;2023-03-31T03:22:44;7.57;;;6.20;;
1785;SDS011;890;48.158;11.540;2023-03-31T03:25:10;8.20;;;6.63;;
1785;SDS011;890;48.158;11.540;2023-03-31T03:27:37;11.13;;;5.80;;
1785;SDS011;890;48.158;11.540;2023-03-31T03:30:05;9.17;;;7.00;;
1785;SDS011;890;48.158;11.540;2023-03-31T03:32:32;9.27;;;6.10;;
1785;SDS011;890;48.158;11.540;2023-03-31T03:34:58;7.00;;;5.90;;
1785;SDS011;890;48.158;11.540;2023-03-31T03:37:24;7.07;;;6.27;;
1785;SDS011;890;48.158;11.540;2023-03-31T03:39:50;10.73;;;6.07;;
1785;SDS011;890;48.158;11.540;2023-03-31T03:42:16;10.37;;;7.00;;
1785;SDS011;890;48.158;11.540;2023-03-31T03:44:41;8.80;;;6.30;;
1785;SDS011;890;48.158;11.540;2023-03-31T03:47:07;7.47;;;6.50;;
1785;SDS011;890;48.158;11.540;2023-03-31T03:49:32;8.57;;;6.00;;
1785;SDS011;890;48.158;11.540;2023-03-31T03:51:58;8.07;;;6.00;;
1785;SDS011;890;48.158;11.540;2023-03-31T03:54:24;13.50;;;7.43;;
1785;SDS011;890;48.158;11.540;2023-03-31T03:56:49;9.13;;;6.53;;
1785;SDS011;890;48.158;11.540;2023-03-31T03:59:15;8.70;;;6.30;;
1785;SDS011;890;48.158;11.540;2023-03-31T04:01:40;7.10;;;6.47;;
1785;SDS011;890;48.158;11.540;2023-03-31T04:04:06;7.50;;;6.00;;
1785;SDS011;890;48.158;11.540;2023-03-31T04:06:32;11.60;;;7.03;;
1785;SDS011;890;48.158;11.540;2023-03-31T04:08:57;11.57;;;7.87;;
1785;SDS011;890;48.158;11.540;2023-03-31T04:11:23;9.80;;;7.00;;
1785;SDS011;890;48.158;11.540;2023-03-31T04:13:48;13.13;;;7.17;;
1785;SDS011;890;48.158;11.540;2023-03-31T04:16:14;12.70;;;7.90;;
1785;SDS011;890;48.158;11.540;2023-03-31T04:18:40;9.57;;;6.83;;
1785;SDS011;890;48.158;11.540;2023-03-31T04:21:09;10.73;;;7.50;;
1785;SDS011;890;48.158;11.540;2023-03-31T04:23:47;10.83;;;7.50;;
1785;SDS011;890;48.158;11.540;2023-03-31T04:26:23;8.70;;;6.50;;
1785;SDS011;890;48.158;11.540;2023-03-31T04:28:58;14.30;;;7.90;;
1785;SDS011;890;48.158;11.540;2023-03-31T04:31:26;9.27;;;6.80;;
1785;SDS011;890;48.158;11.540;2023-03-31T04:33:54;9.03;;;7.27;;
1785;SDS011;890;48.158;11.540;2023-03-31T04:36:26;8.93;;;6.93;;
1785;SDS011;890;48.158;11.540;2023-03-31T04:38:53;12.73;;;7.60;;
1785;SDS011;890;48.158;11.540;2023-03-31T04:41:19;10.43;;;7.80;;
1785;SDS011;890;48.158;11.540;2023-03-31T04:43:45;10.70;;;7.17;;
1785;SDS011;890;48.158;11.540;2023-03-31T04:46:11;9.87;;;7.83;;
1785;SDS011;890;48.158;11.540;2023-03-31T04:48:37;11.83;;;8.90;;
1785;SDS011;890;48.158;11.540;2023-03-31T04:51:03;16.77;;;9.07;;
1785;SDS011;890;48.158;11.540;2023-03-31T04:53:29;11.30;;;8.43;;
1785;SDS011;890;48.158;11.540;2023-03-31T04:55:55;13.27;;;9.00;;
1785;SDS011;890;48.158;11.540;2023-03-31T04:58:20;13.90;;;9.10;;
1785;SDS011;890;48.158;11.540;2023-03-31T05:00:46;9.80;;;8.47;;
1785;SDS011;890;48.158;11.540;2023-03-31T05:03:11;11.53;;;9.67;;
1785;SDS011;890;48.158;11.540;2023-03-31T05:05:37;12.27;;;8.60;;
1785;SDS011;890;48.158;11.540;2023-03-31T05:08:03;13.23;;;8.47;;
1785;SDS011;890;48.158;11.540;2023-03-31T05:10:29;9.33;;;7.80;;
1785;SDS011;890;48.158;11.540;2023-03-31T05:12:55;9.83;;;7.70;;
1785;SDS011;890;48.158;11.540;2023-03-31T05:15:20;10.50;;;8.27;;
1785;SDS011;890;48.158;11.540;2023-03-31T05:17:46;10.90;;;8.80;;
1785;SDS011;890;48.158;11.540;2023-03-31T05:20:12;11.80;;;9.07;;
1785;SDS011;890;48.158;11.540;2023-03-31T05:22:38;12.10;;;9.03;;
1785;SDS011;890;48.158;11.540;2023-03-31T05:25:05;9.67;;;8.20;;
1785;SDS011;890;48.158;11.540;2023-03-31T05:27:33;10.57;;;9.13;;
1785;SDS011;890;48.158;11.540;2023-03-31T05:29:59;9.43;;;8.00;;
1785;SDS011;890;48.158;11.540;2023-03-31T05:32:25;11.33;;;9.30;;
1785;SDS011;890;48.158;11.540;2023-03-31T05:34:51;11.73;;;9.00;;
1785;SDS011;890;48.158;11.540;2023-03-31T05:37:21;11.90;;;9.30;;
1785;SDS011;890;48.158;11.540;2023-03-31T05:39:50;11.60;;;9.00;;
1785;SDS011;890;48.158;11.540;2023-03-31T05:42:16;9.63;;;8.47;;
1785;SDS011;890;48.158;11.540;2023-03-31T05:44:43;15.80;;;11.47;;
1785;SDS011;890;48.158;11.540;2023-03-31T05:47:08;11.93;;;9.77;;
1785;SDS011;890;48.158;11.540;2023-03-31T05:49:34;10.27;;;9.20;;
1785;SDS011;890;48.158;11.540;2023-03-31T05:52:00;10.53;;;9.40;;
1785;SDS011;890;48.158;11.540;2023-03-31T05:54:26;15.67;;;10.60;;
1785;SDS011;890;48.158;11.540;2023-03-31T05:56:51;13.30;;;10.13;;
1785;SDS011;890;48.158;11.540;2023-03-31T05:59:17;11.60;;;8.73;;
1785;SDS011;890;48.158;11.540;2023-03-31T06:01:43;15.70;;;9.80;;
1785;SDS011;890;48.158;11.540;2023-03-31T06:04:08;10.00;;;7.83;;
1785;SDS011;890;48.158;11.540;2023-03-31T06:06:34;12.30;;;9.30;;
1785;SDS011;890;48.158;11.540;2023-03-31T06:09:02;10.27;;;9.10;;
1785;SDS011;890;48.158;11.540;2023-03-31T06:11:28;10.17;;;8.63;;
1785;SDS011;890;48.158;11.540;2023-03-31T06:13:54;12.97;;;9.10;;
1785;SDS011;890;48.158;11.540;2023-03-31T06:16:20;10.73;;;9.67;;
1785;SDS011;890;48.158;11.540;2023-03-31T06:18:45;12.90;;;8.47;;
1785;SDS011;890;48.158;11.540;2023-03-31T06:21:12;12.30;;;9.17;;
1785;SDS011;890;48.158;11.540;2023-03-31T06:23:40;14.30;;;9.63;;
1785;SDS011;890;48.158;11.540;2023-03-31T06:26:10;12.73;;;8.10;;
1785;SDS011;890;48.158;11.540;2023-03-31T06:28:41;11.03;;;7.63;;
1785;SDS011;890;48.158;11.540;2023-03-31T06:31:08;11.80;;;8.03;;
1785;SDS011;890;48.158;11.540;2023-03-31T06:33:37;9.23;;;7.90;;
1785;SDS011;890;48.158;11.540;2023-03-31T06:36:03;9.23;;;8.33;;
1785;SDS011;890;48.158;11.540;2023-03-31T06:38:30;9.83;;;8.53;;
1785;SDS011;890;48.158;11.540;2023-03-31T06:40:57;10.20;;;7.40;;
1785;SDS011;890;48.158;11.540;2023-03-31T06:43:22;9.77;;;7.10;;
1785;SDS011;890;48.158;11.540;2023-03-31T06:45:48;18.03;;;9.73;;
1785;SDS011;890;48.158;11.540;2023-03-31T06:48:13;8.67;;;6.70;;
1785;SDS011;890;48.158;11.540;2023-03-31T06:50:40;9.17;;;6.97;;
1785;SDS011;890;48.158;11.540;2023-03-31T06:53:06;8.93;;;6.20;;
1785;SDS011;890;48.158;11.540;2023-03-31T06:55:32;8.77;;;7.07;;
1785;SDS011;890;48.158;11.540;2023-03-31T06:57:58;10.50;;;6.80;;
1785;SDS011;890;48.158;11.540;2023-03-31T07:00:24;7.53;;;6.50;;
1785;SDS011;890;48.158;11.540;2023-03-31T07:02:51;7.90;;;6.60;;
1785;SDS011;890;48.158;11.540;2023-03-31T07:05:17;10.87;;;7.17;;
1785;SDS011;890;48.158;11.540;2023-03-31T07:07:43;10.27;;;7.33;;
1785;SDS011;890;48.158;11.540;2023-03-31T07:10:09;9.80;;;8.67;;
1785;SDS011;890;48.158;11.540;2023-03-31T07:12:35;9.80;;;7.97;;
1785;SDS011;890;48.158;11.540;2023-03-31T07:15:01;9.60;;;6.60;;
1785;SDS011;890;48.158;11.540;2023-03-31T07:17:26;8.17;;;6.87;;
1785;SDS011;890;48.158;11.540;2023-03-31T07:19:52;10.20;;;8.13;;
1785;SDS011;890;48.158;11.540;2023-03-31T07:22:18;9.67;;;8.37;;
1785;SDS011;890;48.158;11.540;2023-03-31T07:24:43;10.90;;;7.90;;
1785;SDS011;890;48.158;11.540;2023-03-31T07:27:09;9.97;;;7.80;;
1785;SDS011;890;48.158;11.540;2023-03-31T07:29:35;10.03;;;8.10;;
1785;SDS011;890;48.158;11.540;2023-03-31T07:32:00;9.77;;;7.73;;
1785;SDS011;890;48.158;11.540;2023-03-31T07:34:26;10.23;;;8.27;;
1785;SDS011;890;48.158;11.540;2023-03-31T07:36:54;10.30;;;7.83;;
1785;SDS011;890;48.158;11.540;2023-03-31T07:39:20;13.17;;;9.47;;
1785;SDS011;890;48.158;11.540;2023-03-31T07:41:46;13.83;;;9.73;;
1785;SDS011;890;48.158;11.540;2023-03-31T07:44:11;9.93;;;8.60;;
1785;SDS011;890;48.158;11.540;2023-03-31T07:46:38;12.07;;;10.03;;
1785;SDS011;890;48.158;11.540;2023-03-31T07:49:03;10.47;;;8.17;;
1785;SDS011;890;48.158;11.540;2023-03-31T07:51:29;11.63;;;8.87;;
1785;SDS011;890;48.158;11.540;2023-03-31T07:53:55;10.23;;;8.33;;
1785;SDS011;890;48.158;11.540;2023-03-31T07:56:21;10.37;;;8.63;;
1785;SDS011;890;48.158;11.540;2023-03-31T07:58:48;10.40;;;8.37;;
1785;SDS011;890;48.158;11.540;2023-03-31T08:01:16;15.10;;;9.90;;
1785;SDS011;890;48.158;11.540;2023-03-31T08:03:43;12.00;;;8.97;;
1785;SDS011;890;48.158;11.540;2023-03-31T08:06:10;13.07;;;9.13;;
1785;SDS011;890;48.158;11.540;2023-03-31T08:08:36;12.03;;;8.47;;
1785;SDS011;890;48.158;11.540;2023-03-31T08:11:07;11.77;;;8.03;;
1785;SDS011;890;48.158;11.540;2023-03-31T08:13:33;10.67;;;8.70;;
1785;SDS011;890;48.158;11.540;2023-03-31T08:15:58;15.60;;;8.60;;
1785;SDS011;890;48.158;11.540;2023-03-31T08:18:24;13.00;;;8.30;;
1785;SDS011;890;48.158;11.540;2023-03-31T08:20:49;10.53;;;7.80;;
1785;SDS011;890;48.158;11.540;2023-03-31T08:23:15;11.40;;;8.17;;
1785;SDS011;890;48.158;11.540;2023-03-31T08:25:41;11.83;;;8.50;;
1785;SDS011;890;48.158;11.540;2023-03-31T08:28:06;10.30;;;7.73;;
1785;SDS011;890;48.158;11.540;2023-03-31T08:30:35;12.47;;;7.83;;
1785;SDS011;890;48.158;11.540;2023-03-31T08:33:01;16.07;;;10.00;;
1785;SDS011;890;48.158;11.540;2023-03-31T08:35:27;10.90;;;8.07;;
1785;SDS011;890;48.158;11.540;2023-03-31T08:37:53;10.47;;;7.63;;
1785;SDS011;890;48.158;11.540;2023-03-31T08:40:19;9.23;;;8.30;;
1785;SDS011;890;48.158;11.540;2023-03-31T08:42:51;13.30;;;7.63;;
1785;SDS011;890;48.158;11.540;2023-03-31T08:45:21;10.97;;;8.00;;
1785;SDS011;890;48.158;11.540;2023-03-31T08:48:13;11.77;;;6.93;;
1785;SDS011;890;48.158;11.540;2023-03-31T08:50:52;5.87;;;5.30;;
1785;SDS011;890;48.158;11.540;2023-03-31T08:53:25;6.80;;;5.73;;
1785;SDS011;890;48.158;11.540;2023-03-31T08:55:56;8.47;;;5.77;;
1785;SDS011;890;48.158;11.540;2023-03-31T09:06:38;5.17;;;4.50;;
1785;SDS011;890;48.158;11.540;2023-03-31T09:09:12;5.30;;;4.00;;
1785;SDS011;890;48.158;11.540;2023-03-31T09:11:50;4.67;;;4.10;;
1785;SDS011;890;48.158;11.540;2023-03-31T09:14:34;4.23;;;3.83;;
1785;SDS011;890;48.158;11.540;2023-03-31T09:17:19;4.37;;;3.90;;
1785;SDS011;890;48.158;11.540;2023-03-31T09:22:44;4.17;;;3.73;;
1785;SDS011;890;48.158;11.540;2023-03-31T09:25:21;4.60;;;4.20;;
1785;SDS011;890;48.158;11.540;2023-03-31T09:27:50;7.83;;;3.70;;
1785;SDS011;890;48.158;11.540;2023-03-31T09:30:20;4.93;;;3.17;;
1785;SDS011;890;48.158;11.540;2023-03-31T09:32:51;4.73;;;3.13;;
1785;SDS011;890;48.158;11.540;2023-03-31T09:35:30;6.50;;;3.70;;
1785;SDS011;890;48.158;11.540;2023-03-31T09:37:57;4.17;;;3.50;;
1785;SDS011;890;48.158;11.540;2023-03-31T09:40:24;4.70;;;3.30;;
1785;SDS011;890;48.158;11.540;2023-03-31T09:43:01;5.83;;;3.50;;
1785;SDS011;890;48.158;11.540;2023-03-31T09:45:30;4.80;;;3.60;;
1785;SDS011;890;48.158;11.540;2023-03-31T09:47:58;5.27;;;3.80;;
1785;SDS011;890;48.158;11.540;2023-03-31T09:50:27;5.23;;;3.33;;
1785;SDS011;890;48.158;11.540;2023-03-31T09:52:55;4.07;;;2.30;;
1785;SDS011;890;48.158;11.540;2023-03-31T09:55:27;4.17;;;2.60;;
1785;SDS011;890;48.158;11.540;2023-03-31T09:58:01;4.43;;;3.73;;
1785;SDS011;890;48.158;11.540;2023-03-31T10:00:30;2.73;;;2.30;;
1785;SDS011;890;48.158;11.540;2023-03-31T10:03:02;5.67;;;2.93;;
1785;SDS011;890;48.158;11.540;2023-03-31T10:05:33;3.27;;;2.60;;
1785;SDS011;890;48.158;11.540;2023-03-31T10:10:42;3.90;;;2.60;;
1785;SDS011;890;48.158;11.540;2023-03-31T10:13:10;4.33;;;2.47;;
1785;SDS011;890;48.158;11.540;2023-03-31T10:15:41;3.60;;;2.30;;
1785;SDS011;890;48.158;11.540;2023-03-31T10:18:11;2.60;;;2.27;;
1785;SDS011;890;48.158;11.540;2023-03-31T10:20:50;3.70;;;2.83;;
1785;SDS011;890;48.158;11.540;2023-03-31T10:23:17;3.80;;;2.30;;
1785;SDS011;890;48.158;11.540;2023-03-31T10:25:47;3.50;;;2.90;;
1785;SDS011;890;48.158;11.540;2023-03-31T10:28:17;3.40;;;2.40;;
1785;SDS011;890;48.158;11.540;2023-03-31T10:30:48;4.50;;;3.13;;
1785;SDS011;890;48.158;11.540;2023-03-31T10:33:22;2.60;;;2.40;;
1785;SDS011;890;48.158;11.540;2023-03-31T10:35:54;3.87;;;3.47;;
1785;SDS011;890;48.158;11.540;2023-03-31T10:38:23;3.10;;;2.60;;
1785;SDS011;890;48.158;11.540;2023-03-31T10:40:59;4.10;;;3.20;;
1785;SDS011;890;48.158;11.540;2023-03-31T10:43:26;4.20;;;3.10;;
1785;SDS011;890;48.158;11.540;2023-03-31T10:46:02;3.70;;;3.40;;
1785;SDS011;890;48.158;11.540;2023-03-31T10:48:35;4.43;;;3.40;;
1785;SDS011;890;48.158;11.540;2023-03-31T10:51:15;4.00;;;3.50;;
1785;SDS011;890;48.158;11.540;2023-03-31T10:53:46;4.33;;;3.60;;
1785;SDS011;890;48.158;11.540;2023-03-31T10:56:29;5.97;;;3.83;;
1785;SDS011;890;48.158;11.540;2023-03-31T11:17:55;5.90;;;3.50;;
1785;SDS011;890;48.158;11.540;2023-03-31T11:23:20;4.40;;;3.90;;
1785;SDS011;890;48.158;11.540;2023-03-31T11:26:08;2.57;;;2.33;;
1785;SDS011;890;48.158;11.540;2023-03-31T11:32:03;2.90;;;1.90;;
1785;SDS011;890;48.158;11.540;2023-03-31T11:34:54;1.43;;;1.20;;
1785;SDS011;890;48.158;11.540;2023-03-31T11:37:47;3.97;;;1.70;;
1785;SDS011;890;48.158;11.540;2023-03-31T11:43:03;2.00;;;1.70;;
1785;SDS011;890;48.158;11.540;2023-03-31T11:51:40;3.43;;;1.70;;
1785;SDS011;890;48.158;11.540;2023-03-31T11:54:33;4.80;;;2.20;;
1785;SDS011;890;48.158;11.540;2023-03-31T11:57:39;3.17;;;2.10;;
1785;SDS011;890;48.158;11.540;2023-03-31T12:00:05;2.53;;;1.77;;
1785;SDS011;890;48.158;11.540;2023-03-31T12:05:27;2.07;;;1.67;;
1785;SDS011;890;48.158;11.540;2023-03-31T12:09:01;2.50;;;1.90;;
1785;SDS011;890;48.158;11.540;2023-03-31T12:11:14;2.03;;;1.83;;
1785;SDS011;890;48.158;11.540;2023-03-31T12:13:52;4.63;;;2.07;;
1785;SDS011;890;48.158;11.540;2023-03-31T12:16:25;2.90;;;2.00;;
1785;SDS011;890;48.158;11.540;2023-03-31T12:19:32;5.47;;;3.60;;
1785;SDS011;890;48.158;11.540;2023-03-31T12:22:21;5.33;;;2.53;;
1785;SDS011;890;48.158;11.540;2023-03-31T12:24:51;6.23;;;2.40;;
1785;SDS011;890;48.158;11.540;2023-03-31T12:27:36;5.50;;;2.43;;
1785;SDS011;890;48.158;11.540;2023-03-31T12:32:48;9.63;;;2.50;;
1785;SDS011;890;48.158;11.540;2023-03-31T12:35:27;5.13;;;2.00;;
1785;SDS011;890;48.158;11.540;2023-03-31T12:38:35;3.97;;;1.97;;
1785;SDS011;890;48.158;11.540;2023-03-31T12:41:19;3.03;;;1.70;;
1785;SDS011;890;48.158;11.540;2023-03-31T12:44:08;4.03;;;2.10;;
1785;SDS011;890;48.158;11.540;2023-03-31T12:47:10;3.97;;;2.20;;
1785;SDS011;890;48.158;11.540;2023-03-31T12:52:19;3.40;;;2.30;;
1785;SDS011;890;48.158;11.540;2023-03-31T12:57:25;3.60;;;1.90;;
1785;SDS011;890;48.158;11.540;2023-03-31T13:02:38;3.00;;;2.53;;
1785;SDS011;890;48.158;11.540;2023-03-31T13:08:48;2.97;;;1.80;;
1785;SDS011;890;48.158;11.540;2023-03-31T13:11:15;3.33;;;1.70;;
1785;SDS011;890;48.158;11.540;2023-03-31T13:16:46;2.47;;;2.00;;
1785;SDS011;890;48.158;11.540;2023-03-31T13:22:26;1.67;;;1.47;;
1785;SDS011;890;48.158;11.540;2023-03-31T13:24:52;2.90;;;1.30;;
1785;SDS011;890;48.158;11.540;2023-03-31T13:27:29;3.23;;;1.37;;
1785;SDS011;890;48.158;11.540;2023-03-31T13:29:58;4.63;;;1.47;;
1785;SDS011;890;48.158;11.540;2023-03-31T13:32:27;2.60;;;1.10;;
1785;SDS011;890;48.158;11.540;2023-03-31T13:35:16;2.60;;;1.20;;
1785;SDS011;890;48.158;11.540;2023-03-31T13:40:19;1.00;;;0.90;;
1785;SDS011;890;48.158;11.540;2023-03-31T13:46:28;3.70;;;1.60;;
1785;SDS011;890;48.158;11.540;2023-03-31T13:51:42;2.20;;;1.00;;
1785;SDS011;890;48.158;11.540;2023-03-31T14:06:22;2.43;;;1.53;;
1785;SDS011;890;48.158;11.540;2023-03-31T14:09:26;2.10;;;1.33;;
1785;SDS011;890;48.158;11.540;2023-03-31T14:11:59;1.93;;;1.03;;
1785;SDS011;890;48.158;11.540;2023-03-31T14:14:25;3.30;;;0.90;;
1785;SDS011;890;48.158;11.540;2023-03-31T14:16:54;1.73;;;1.13;;
1785;SDS011;890;48.158;11.540;2023-03-31T14:22:09;1.67;;;0.90;;
1785;SDS011;890;48.158;11.540;2023-03-31T14:24:47;4.57;;;2.97;;
1785;SDS011;890;48.158;11.540;2023-03-31T14:30:22;2.80;;;1.40;;
1785;SDS011;890;48.158;11.540;2023-03-31T14:38:16;3.13;;;1.40;;
1785;SDS011;890;48.158;11.540;2023-03-31T14:40:46;3.80;;;1.27;;
1785;SDS011;890;48.158;11.540;2023-03-31T14:43:20;1.50;;;1.27;;
1785;SDS011;890;48.158;11.540;2023-03-31T14:45:59;4.20;;;1.03;;
1785;SDS011;890;48.158;11.540;2023-03-31T14:48:31;2.97;;;1.53;;
1785;SDS011;890;48.158;11.540;2023-03-31T14:50:59;4.37;;;1.60;;
1785;SDS011;890;48.158;11.540;2023-03-31T14:53:27;5.97;;;1.00;;
1785;SDS011;890;48.158;11.540;2023-03-31T14:56:11;1.47;;;0.90;;
1785;SDS011;890;48.158;11.540;2023-03-31T14:58:45;1.13;;;0.90;;
1785;SDS011;890;48.158;11.540;2023-03-31T15:01:17;1.00;;;0.90;;
1785;SDS011;890;48.158;11.540;2023-03-31T15:03:50;1.73;;;0.83;;
1785;SDS011;890;48.158;11.540;2023-03-31T15:06:16;1.30;;;0.80;;
1785;SDS011;890;48.158;11.540;2023-03-31T15:08:42;2.17;;;0.93;;
1785;SDS011;890;48.158;11.540;2023-03-31T15:11:12;1.77;;;1.07;;
1785;SDS011;890;48.158;11.540;2023-03-31T15:13:42;1.70;;;1.07;;
1785;SDS011;890;48.158;11.540;2023-03-31T15:16:45;2.70;;;1.20;;
1785;SDS011;890;48.158;11.540;2023-03-31T15:19:15;1.80;;;1.50;;
1785;SDS011;890;48.158;11.540;2023-03-31T15:21:46;1.93;;;1.43;;
1785;SDS011;890;48.158;11.540;2023-03-31T15:24:20;2.70;;;1.50;;
1785;SDS011;890;48.158;11.540;2023-03-31T15:26:49;3.90;;;1.20;;
1785;SDS011;890;48.158;11.540;2023-03-31T15:29:41;1.47;;;1.23;;
1785;SDS011;890;48.158;11.540;2023-03-31T15:32:13;1.83;;;1.30;;
1785;SDS011;890;48.158;11.540;2023-03-31T15:34:54;2.10;;;1.30;;
1785;SDS011;890;48.158;11.540;2023-03-31T15:37:24;1.60;;;1.03;;
1785;SDS011;890;48.158;11.540;2023-03-31T15:39:57;1.77;;;1.03;;
1785;SDS011;890;48.158;11.540;2023-03-31T15:42:24;2.90;;;1.07;;
1785;SDS011;890;48.158;11.540;2023-03-31T15:44:55;2.03;;;1.00;;
1785;SDS011;890;48.158;11.540;2023-03-31T15:47:49;1.50;;;1.20;;
1785;SDS011;890;48.158;11.540;2023-03-31T15:50:16;3.73;;;2.20;;
1785;SDS011;890;48.158;11.540;2023-03-31T15:52:52;1.83;;;1.20;;
1785;SDS011;890;48.158;11.540;2023-03-31T15:55:27;2.73;;;1.10;;
1785;SDS011;890;48.158;11.540;2023-03-31T15:57:55;2.23;;;1.10;;
1785;SDS011;890;48.158;11.540;2023-03-31T16:03:12;1.57;;;0.83;;
1785;SDS011;890;48.158;11.540;2023-03-31T16:05:53;3.77;;;2.60;;
1785;SDS011;890;48.158;11.540;2023-03-31T16:11:41;8.63;;;8.03;;
1785;SDS011;890;48.158;11.540;2023-03-31T16:13:47;5.77;;;2.43;;
1785;SDS011;890;48.158;11.540;2023-03-31T16:16:17;4.97;;;1.43;;
1785;SDS011;890;48.158;11.540;2023-03-31T16:18:48;5.73;;;1.60;;
1785;SDS011;890;48.158;11.540;2023-03-31T16:21:22;3.97;;;1.60;;
1785;SDS011;890;48.158;11.540;2023-03-31T16:23:53;3.67;;;1.50;;
1785;SDS011;890;48.158;11.540;2023-03-31T16:26:23;2.67;;;1.10;;
1785;SDS011;890;48.158;11.540;2023-03-31T16:28:52;1.70;;;1.10;;
1785;SDS011;890;48.158;11.540;2023-03-31T16:33:58;1.97;;;1.40;;
1785;SDS011;890;48.158;11.540;2023-03-31T16:36:24;2.60;;;1.53;;
1785;SDS011;890;48.158;11.540;2023-03-31T16:38:53;2.23;;;1.33;;
1785;SDS011;890;48.158;11.540;2023-03-31T16:41:19;2.93;;;1.53;;
1785;SDS011;890;48.158;11.540;2023-03-31T16:43:47;4.13;;;1.70;;
1785;SDS011;890;48.158;11.540;2023-03-31T16:46:16;1.70;;;1.60;;
1785;SDS011;890;48.158;11.540;2023-03-31T16:48:42;2.63;;;2.10;;
1785;SDS011;890;48.158;11.540;2023-03-31T16:51:07;2.23;;;1.27;;
1785;SDS011;890;48.158;11.540;2023-03-31T16:53:34;4.80;;;2.50;;
1785;SDS011;890;48.158;11.540;2023-03-31T16:56:00;2.80;;;2.20;;
1785;SDS011;890;48.158;11.540;2023-03-31T16:58:32;4.00;;;2.20;;
1785;SDS011;890;48.158;11.540;2023-03-31T17:00:59;2.43;;;1.40;;
1785;SDS011;890;48.158;11.540;2023-03-31T17:03:24;9.43;;;8.80;;
1785;SDS011;890;48.158;11.540;2023-03-31T17:05:52;1.20;;;0.90;;
1785;SDS011;890;48.158;11.540;2023-03-31T17:08:20;3.13;;;1.23;;
1785;SDS011;890;48.158;11.540;2023-03-31T17:10:52;1.93;;;1.10;;
1785;SDS011;890;48.158;11.540;2023-03-31T17:13:24;1.90;;;1.10;;
1785;SDS011;890;48.158;11.540;2023-03-31T17:15:50;1.33;;;1.00;;
1785;SDS011;890;48.158;11.540;2023-03-31T17:18:17;3.03;;;1.30;;
1785;SDS011;890;48.158;11.540;2023-03-31T17:20:43;2.50;;;1.30;;
1785;SDS011;890;48.158;11.540;2023-03-31T17:23:08;1.87;;;1.23;;
1785;SDS011;890;48.158;11.540;2023-03-31T17:25:34;1.73;;;1.03;;
1785;SDS011;890;48.158;11.540;2023-03-31T17:28:01;1.77;;;1.20;;
1785;SDS011;890;48.158;11.540;2023-03-31T17:30:28;2.57;;;1.20;;
1785;SDS011;890;48.158;11.540;2023-03-31T17:32:55;4.20;;;1.10;;
1785;SDS011;890;48.158;11.540;2023-03-31T17:35:20;1.40;;;1.10;;
1785;SDS011;890;48.158;11.540;2023-03-31T17:37:46;1.97;;;1.40;;
1785;SDS011;890;48.158;11.540;2023-03-31T17:40:20;2.63;;;1.13;;
1785;SDS011;890;48.158;11.540;2023-03-31T17:42:46;1.10;;;1.00;;
1785;SDS011;890;48.158;11.540;2023-03-31T17:45:12;1.67;;;1.30;;
1785;SDS011;890;48.158;11.540;2023-03-31T17:47:38;1.20;;;1.00;;
1785;SDS011;890;48.158;11.540;2023-03-31T17:50:05;1.30;;;1.20;;
1785;SDS011;890;48.158;11.540;2023-03-31T17:52:32;1.50;;;1.13;;
1785;SDS011;890;48.158;11.540;2023-03-31T17:54:59;2.83;;;1.00;;
1785;SDS011;890;48.158;11.540;2023-03-31T17:57:25;2.20;;;1.40;;
1785;SDS011;890;48.158;11.540;2023-03-31T17:59:51;3.57;;;1.57;;
1785;SDS011;890;48.158;11.540;2023-03-31T18:02:16;1.77;;;1.13;;